createdAt,value
2022-12-12T00:00:20.249Z,16.37
2022-12-12T00:05:35.608Z,16.37
2022-12-12T00:10:51.245Z,16.39
2022-12-12T00:16:06.681Z,16.41
2022-12-12T00:21:22.334Z,16.38
2022-12-12T00:26:37.244Z,16.38
2022-12-12T00:31:52.432Z,16.38
2022-12-12T00:37:08.234Z,16.39
2022-12-12T00:42:24.276Z,16.40
2022-12-12T00:47:39.256Z,16.41
2022-12-12T00:52:54.240Z,16.41
2022-12-12T00:58:09.045Z,16.39
2022-12-12T01:03:24.237Z,16.39
2022-12-12T01:08:39.302Z,16.39
2022-12-12T01:13:54.610Z,16.38
2022-12-12T01:19:10.279Z,16.40
2022-12-12T01:24:25.020Z,16.44
2022-12-12T01:29:40.634Z,16.45
2022-12-12T01:34:56.246Z,16.44
2022-12-12T01:40:11.296Z,16.45
2022-12-12T01:45:27.256Z,16.47
2022-12-12T01:50:42.315Z,16.48
2022-12-12T01:55:57.300Z,16.49
2022-12-12T02:01:12.320Z,16.49
2022-12-12T02:06:27.346Z,16.51
2022-12-12T02:11:42.292Z,16.51
2022-12-12T02:16:57.623Z,16.54
2022-12-12T02:22:13.291Z,16.56
2022-12-12T02:27:30.267Z,16.57
2022-12-12T02:32:45.652Z,16.58
2022-12-12T02:38:01.259Z,16.60
2022-12-12T02:43:17.525Z,16.63
2022-12-12T02:48:34.503Z,16.64
2022-12-12T02:53:50.284Z,16.68
2022-12-12T02:59:05.697Z,16.70
2022-12-12T03:04:21.261Z,16.71
2022-12-12T03:09:36.324Z,16.72
2022-12-12T03:14:51.724Z,16.73
2022-12-12T03:20:07.247Z,16.76
2022-12-12T03:25:22.257Z,16.79
2022-12-12T03:30:37.240Z,16.81
2022-12-12T03:35:52.374Z,16.81
2022-12-12T03:41:07.274Z,16.83
2022-12-12T03:46:23.286Z,16.84
2022-12-12T03:51:38.252Z,16.89
2022-12-12T03:56:53.626Z,16.92
2022-12-12T04:02:09.844Z,16.93
2022-12-12T04:07:25.284Z,16.95
2022-12-12T04:12:40.233Z,16.97
2022-12-12T04:17:55.606Z,17.00
2022-12-12T04:23:11.578Z,17.03
2022-12-12T04:28:27.248Z,17.07
2022-12-12T04:33:42.535Z,17.10
2022-12-12T04:38:58.319Z,17.11
2022-12-12T04:44:13.263Z,17.11
2022-12-12T04:49:28.578Z,17.11
2022-12-12T04:54:44.247Z,17.13
2022-12-12T04:59:59.521Z,17.14
2022-12-12T05:05:15.472Z,17.16
2022-12-12T05:10:31.380Z,17.16
2022-12-12T05:15:46.278Z,17.16
2022-12-12T05:21:01.273Z,17.14
2022-12-12T05:26:16.311Z,17.14
2022-12-12T05:31:31.639Z,17.10
2022-12-12T05:36:47.301Z,17.11
2022-12-12T05:42:02.344Z,17.12
2022-12-12T05:47:20.294Z,17.10
2022-12-12T05:52:35.035Z,17.10
2022-12-12T05:57:50.242Z,17.08
2022-12-12T06:03:05.262Z,17.07
2022-12-12T06:08:24.874Z,17.07
2022-12-12T06:13:40.594Z,17.07
2022-12-12T06:18:56.378Z,17.05
2022-12-12T06:24:11.231Z,17.05
2022-12-12T06:29:26.336Z,17.04
2022-12-12T06:34:41.375Z,17.03
2022-12-12T06:39:58.273Z,17.02
2022-12-12T06:45:13.458Z,17.00
2022-12-12T06:50:29.317Z,17.00
2022-12-12T06:55:44.531Z,16.95
2022-12-12T07:01:00.290Z,16.98
2022-12-12T07:06:15.268Z,16.96
2022-12-12T07:11:30.618Z,16.98
2022-12-12T07:16:46.302Z,16.97
2022-12-12T07:22:07.482Z,16.95
2022-12-12T07:27:25.294Z,16.95
2022-12-12T07:32:40.276Z,16.92
2022-12-12T07:37:55.326Z,16.92
2022-12-12T07:43:10.314Z,16.91
2022-12-12T07:48:25.312Z,16.89
2022-12-12T07:53:40.606Z,16.88
2022-12-12T07:58:56.261Z,16.88
2022-12-12T08:04:11.570Z,16.85
2022-12-12T08:09:27.275Z,16.83
2022-12-12T08:14:42.308Z,16.83
2022-12-12T08:19:57.383Z,16.81
2022-12-12T08:25:12.628Z,16.81
2022-12-12T08:30:28.699Z,16.81
2022-12-12T08:36:22.322Z,16.79
2022-12-12T08:41:37.247Z,16.81
2022-12-12T08:46:52.381Z,16.83
2022-12-12T08:52:07.626Z,16.85
2022-12-12T08:57:26.026Z,16.84
2022-12-12T09:02:41.554Z,16.82
2022-12-12T09:07:57.460Z,16.80
2022-12-12T09:13:12.282Z,16.82
2022-12-12T09:18:27.258Z,16.84
2022-12-12T09:23:43.316Z,16.84
2022-12-12T09:28:58.164Z,16.85
2022-12-12T09:34:13.694Z,16.83
2022-12-12T09:39:29.329Z,16.82
2022-12-12T09:44:44.080Z,16.77
2022-12-12T09:50:00.614Z,16.75
2022-12-12T09:55:16.399Z,16.73
2022-12-12T10:00:31.752Z,16.70
2022-12-12T10:05:47.341Z,16.69
2022-12-12T10:11:03.665Z,16.69
2022-12-12T10:16:19.318Z,16.67
2022-12-12T10:21:34.297Z,16.65
2022-12-12T10:26:49.328Z,16.64
2022-12-12T10:32:04.318Z,16.63
2022-12-12T10:37:19.271Z,16.62
2022-12-12T10:42:34.588Z,16.62
2022-12-12T10:47:50.565Z,16.68
2022-12-12T10:53:06.346Z,16.71
2022-12-12T10:58:21.314Z,16.67
2022-12-12T11:03:36.334Z,16.64
2022-12-12T11:08:51.347Z,16.62
2022-12-12T11:14:06.718Z,16.60
2022-12-12T11:19:22.416Z,16.60
2022-12-12T11:24:37.540Z,16.59
2022-12-12T11:29:53.374Z,16.58
2022-12-12T11:35:08.703Z,16.58
2022-12-12T11:40:24.698Z,16.57
2022-12-12T11:45:40.693Z,16.57
2022-12-12T11:50:56.629Z,16.56
2022-12-12T11:56:12.349Z,16.56
2022-12-12T12:01:27.277Z,16.54
2022-12-12T12:06:42.123Z,16.54
2022-12-12T12:11:57.310Z,16.54
2022-12-12T12:17:12.299Z,16.53
2022-12-12T12:22:27.122Z,16.52
2022-12-12T12:27:42.061Z,16.53
2022-12-12T12:32:57.334Z,16.53
2022-12-12T12:38:13.289Z,16.51
2022-12-12T12:43:28.336Z,16.51
2022-12-12T12:48:43.596Z,16.51
2022-12-12T12:53:59.394Z,16.50
2022-12-12T12:59:14.380Z,16.53
2022-12-12T13:04:29.373Z,16.65
2022-12-12T13:09:44.621Z,16.70
2022-12-12T13:15:00.240Z,16.76
2022-12-12T13:20:16.863Z,16.80
2022-12-12T13:25:32.311Z,16.85
2022-12-12T13:30:47.498Z,16.89
2022-12-12T13:36:02.367Z,16.89
2022-12-12T13:41:17.411Z,16.91
2022-12-12T13:46:32.337Z,16.91
2022-12-12T13:51:48.433Z,16.93
2022-12-12T13:57:03.372Z,16.96
2022-12-12T14:02:18.347Z,16.98
2022-12-12T14:07:33.353Z,16.99
2022-12-12T14:12:48.326Z,16.99
2022-12-12T14:18:03.314Z,16.98
2022-12-12T14:23:18.602Z,16.99
2022-12-12T14:28:34.307Z,16.99
2022-12-12T14:33:49.355Z,16.99
2022-12-12T14:39:04.399Z,16.99
2022-12-12T14:44:36.395Z,17.00
2022-12-12T14:49:54.281Z,16.93
2022-12-12T14:55:09.296Z,16.89
2022-12-12T15:00:24.620Z,16.87
2022-12-12T15:05:41.287Z,16.83
2022-12-12T15:10:56.901Z,16.79
2022-12-12T15:16:12.125Z,16.78
2022-12-12T15:21:27.310Z,16.75
2022-12-12T15:26:42.432Z,16.73
2022-12-12T15:31:57.455Z,16.71
2022-12-12T15:37:14.297Z,16.70
2022-12-12T15:42:29.194Z,16.67
2022-12-12T15:47:44.071Z,16.67
2022-12-12T15:52:59.296Z,16.63
2022-12-12T15:58:17.642Z,16.63
2022-12-12T16:03:34.335Z,16.60
2022-12-12T16:08:49.613Z,16.60
2022-12-12T16:14:05.293Z,16.58
2022-12-12T16:19:20.446Z,16.56
2022-12-12T16:24:35.299Z,16.55
2022-12-12T16:29:51.428Z,16.55
2022-12-12T16:35:06.289Z,16.53
2022-12-12T16:40:21.133Z,16.51
2022-12-12T16:45:36.450Z,16.49
2022-12-12T16:50:51.350Z,16.48
2022-12-12T16:56:06.337Z,16.47
2022-12-12T17:01:21.419Z,16.46
2022-12-12T17:06:36.343Z,16.45
2022-12-12T17:11:51.329Z,16.44
2022-12-12T17:17:06.714Z,16.42
2022-12-12T17:22:22.660Z,16.40
2022-12-12T17:27:38.749Z,16.39
2022-12-12T17:38:26.761Z,16.34
2022-12-12T17:43:42.397Z,16.31
2022-12-12T17:48:57.364Z,16.33
2022-12-12T17:54:12.398Z,16.32
2022-12-12T17:59:27.396Z,16.31
2022-12-12T18:04:43.446Z,16.30
2022-12-12T18:09:58.365Z,16.29
2022-12-12T18:15:13.667Z,16.27
2022-12-12T18:20:31.301Z,16.27
2022-12-12T18:25:46.333Z,16.27
2022-12-12T18:31:01.140Z,16.25
2022-12-12T18:36:16.338Z,16.25
2022-12-12T18:41:32.641Z,16.20
2022-12-12T18:46:48.419Z,16.23
2022-12-12T18:52:03.322Z,16.23
2022-12-12T18:57:18.411Z,16.21
2022-12-12T19:02:33.356Z,16.20
2022-12-12T19:07:48.392Z,16.19
2022-12-12T19:13:03.375Z,16.19
2022-12-12T19:18:18.345Z,16.17
2022-12-12T19:23:33.489Z,16.17
2022-12-12T19:28:48.328Z,16.17
2022-12-12T19:34:03.442Z,16.15
2022-12-12T19:39:19.349Z,16.14
2022-12-12T19:44:37.518Z,16.13
2022-12-12T19:49:57.352Z,16.24
2022-12-12T19:55:12.338Z,16.33
2022-12-12T20:00:27.234Z,16.42
2022-12-12T20:05:42.656Z,16.45
2022-12-12T20:10:58.435Z,16.49
2022-12-12T20:16:13.384Z,16.55
2022-12-12T20:22:00.327Z,16.57
2022-12-12T20:27:03.866Z,16.59
2022-12-12T20:32:23.419Z,16.61
2022-12-12T20:37:38.408Z,16.63
2022-12-12T20:42:57.288Z,16.66
2022-12-12T20:48:17.367Z,16.71
2022-12-12T20:53:36.379Z,16.70
2022-12-12T20:58:51.329Z,16.72
2022-12-12T21:04:06.389Z,16.73
2022-12-12T21:09:24.788Z,16.74
2022-12-12T21:14:42.333Z,16.75
2022-12-12T21:20:00.525Z,16.74
2022-12-12T21:25:20.398Z,16.75
2022-12-12T21:30:35.334Z,16.75
2022-12-12T21:35:50.307Z,16.74
2022-12-12T21:41:05.323Z,16.74
2022-12-12T21:46:20.552Z,16.73
2022-12-12T21:51:36.361Z,16.73
2022-12-12T21:56:51.372Z,16.75
2022-12-12T22:02:06.136Z,16.75
2022-12-12T22:07:21.088Z,16.74
2022-12-12T22:12:36.223Z,16.74
2022-12-12T22:17:51.657Z,16.74
2022-12-12T22:23:07.367Z,16.75
2022-12-12T22:28:22.500Z,16.74
2022-12-12T22:33:37.347Z,16.74
2022-12-12T22:38:52.335Z,16.73
2022-12-12T22:44:07.643Z,16.78
2022-12-12T22:49:23.346Z,16.79
2022-12-12T22:54:38.700Z,16.78
2022-12-12T22:59:54.349Z,16.75
2022-12-12T23:05:09.484Z,16.72
2022-12-12T23:10:24.869Z,16.70
2022-12-12T23:15:40.427Z,16.63
2022-12-12T23:20:55.357Z,16.67
2022-12-12T23:26:10.312Z,16.67
2022-12-12T23:31:25.394Z,16.66
2022-12-12T23:36:41.352Z,16.65
2022-12-12T23:41:56.340Z,16.67
2022-12-12T23:47:11.323Z,16.65
2022-12-12T23:52:26.381Z,16.66
2022-12-12T23:57:41.722Z,16.66
